createdAt,value
2023-04-15T00:00:57.718Z,43.38
2023-04-15T00:01:57.801Z,44.73
2023-04-15T00:02:57.820Z,45.56
2023-04-15T00:03:57.736Z,44.85
2023-04-15T00:04:57.685Z,40.89
2023-04-15T00:05:57.688Z,45.01
2023-04-15T00:06:57.684Z,46.45
2023-04-15T00:07:57.707Z,45.32
2023-04-15T00:08:57.782Z,47.09
2023-04-15T00:09:57.657Z,46.89
2023-04-15T00:10:57.656Z,45.27
2023-04-15T00:11:57.662Z,44.34
2023-04-15T00:12:57.619Z,46.19
2023-04-15T00:13:57.638Z,44.83
2023-04-15T00:14:57.595Z,44.18
2023-04-15T00:15:57.645Z,41.56
2023-04-15T00:16:57.745Z,43.94
2023-04-15T00:17:57.645Z,45.13
2023-04-15T00:18:57.694Z,46.24
2023-04-15T00:19:57.555Z,47.63
2023-04-15T00:20:57.598Z,48.97
2023-04-15T00:21:57.597Z,47.11
2023-04-15T00:22:57.529Z,48.62
2023-04-15T00:23:57.534Z,48.70
2023-04-15T00:24:57.545Z,47.97
2023-04-15T00:25:57.536Z,47.67
2023-04-15T00:26:57.502Z,49.62
2023-04-15T00:27:57.576Z,45.88
2023-04-15T00:28:57.542Z,45.71
2023-04-15T00:29:57.510Z,45.74
2023-04-15T00:30:57.639Z,45.06
2023-04-15T00:31:57.648Z,44.60
2023-04-15T00:32:57.715Z,43.59
2023-04-15T00:33:57.748Z,44.41
2023-04-15T00:34:57.833Z,43.66
2023-04-15T00:35:57.845Z,41.75
2023-04-15T00:36:57.903Z,42.54
2023-04-15T00:37:57.964Z,43.95
2023-04-15T00:38:58.183Z,42.74
2023-04-15T00:39:58.041Z,42.43
2023-04-15T00:40:58.129Z,42.05
2023-04-15T00:41:58.149Z,44.22
2023-04-15T00:42:58.221Z,42.90
2023-04-15T00:43:58.263Z,44.25
2023-04-15T00:44:58.327Z,42.59
2023-04-15T00:45:58.413Z,43.09
2023-04-15T00:46:58.421Z,42.63
2023-04-15T00:47:58.534Z,42.83
2023-04-15T00:48:58.848Z,40.54
2023-04-15T00:49:58.600Z,41.39
2023-04-15T00:50:58.711Z,40.51
2023-04-15T00:51:58.739Z,41.48
2023-04-15T00:52:58.805Z,41.27
2023-04-15T00:53:58.835Z,42.34
2023-04-15T00:54:58.922Z,38.29
2023-04-15T00:55:58.990Z,40.47
2023-04-15T00:56:59.063Z,37.21
2023-04-15T00:57:59.061Z,40.75
2023-04-15T00:58:59.251Z,40.08
2023-04-15T00:59:59.165Z,37.82
2023-04-15T01:00:59.228Z,36.29
2023-04-15T01:01:59.393Z,38.91
2023-04-15T01:02:59.386Z,38.86
2023-04-15T01:03:59.383Z,39.55
2023-04-15T01:04:59.347Z,41.06
2023-04-15T01:06:00.911Z,40.65
2023-04-15T01:06:59.426Z,41.00
2023-04-15T01:07:59.388Z,42.04
2023-04-15T01:08:59.531Z,38.39
2023-04-15T01:09:59.375Z,41.25
2023-04-15T01:10:59.376Z,42.81
2023-04-15T01:11:59.351Z,41.32
2023-04-15T01:13:00.183Z,40.70
2023-04-15T01:14:00.161Z,40.81
2023-04-15T01:14:59.346Z,39.28
2023-04-15T01:15:59.485Z,38.14
2023-04-15T01:16:59.319Z,42.22
2023-04-15T01:17:59.349Z,41.65
2023-04-15T01:18:59.525Z,38.95
2023-04-15T01:19:59.322Z,39.58
2023-04-15T01:20:59.309Z,39.33
2023-04-15T01:21:59.292Z,39.65
2023-04-15T01:22:59.346Z,40.13
2023-04-15T01:23:59.287Z,40.51
2023-04-15T01:24:59.264Z,40.74
2023-04-15T01:25:59.259Z,39.82
2023-04-15T01:26:59.232Z,41.35
2023-04-15T01:27:59.257Z,42.16
2023-04-15T01:28:59.573Z,41.69
2023-04-15T01:29:59.232Z,39.46
2023-04-15T01:30:59.222Z,38.61
2023-04-15T01:31:59.264Z,38.67
2023-04-15T01:32:59.246Z,39.27
2023-04-15T01:33:59.203Z,40.13
2023-04-15T01:34:59.179Z,39.57
2023-04-15T01:35:59.226Z,39.31
2023-04-15T01:36:59.179Z,38.18
2023-04-15T01:37:59.149Z,37.22
2023-04-15T01:38:59.440Z,40.13
2023-04-15T01:39:59.306Z,40.13
2023-04-15T01:40:59.362Z,38.10
2023-04-15T01:41:59.484Z,42.27
2023-04-15T01:42:59.426Z,38.43
2023-04-15T01:43:59.526Z,39.66
2023-04-15T01:44:59.591Z,41.47
2023-04-15T01:45:59.600Z,40.60
2023-04-15T01:46:59.740Z,43.06
2023-04-15T01:47:59.707Z,39.26
2023-04-15T01:48:59.866Z,38.21
2023-04-15T01:49:59.709Z,39.71
2023-04-15T01:50:59.730Z,41.39
2023-04-15T01:51:59.740Z,41.69
2023-04-15T01:52:59.804Z,38.51
2023-04-15T01:53:59.859Z,37.96
2023-04-15T01:54:59.859Z,40.43
2023-04-15T01:55:59.887Z,39.38
2023-04-15T01:56:59.940Z,39.96
2023-04-15T01:57:59.938Z,38.75
2023-04-15T01:59:00.151Z,42.30
2023-04-15T02:00:00.036Z,36.83
2023-04-15T02:01:00.148Z,38.54
2023-04-15T02:02:00.195Z,36.22
2023-04-15T02:03:00.227Z,39.34
2023-04-15T02:04:00.236Z,39.13
2023-04-15T02:05:00.224Z,38.34
2023-04-15T02:06:00.273Z,38.68
2023-04-15T02:07:00.344Z,38.31
2023-04-15T02:08:00.415Z,36.14
2023-04-15T02:09:00.713Z,35.67
2023-04-15T02:10:00.513Z,39.31
2023-04-15T02:11:00.538Z,37.94
2023-04-15T02:12:00.618Z,37.60
2023-04-15T02:13:00.632Z,38.69
2023-04-15T02:14:00.686Z,36.85
2023-04-15T02:15:00.710Z,37.31
2023-04-15T02:16:00.780Z,39.48
2023-04-15T02:17:00.839Z,41.35
2023-04-15T02:18:01.004Z,39.00
2023-04-15T02:19:01.156Z,39.58
2023-04-15T02:20:00.965Z,41.23
2023-04-15T02:21:00.971Z,37.42
2023-04-15T02:22:01.036Z,38.23
2023-04-15T02:23:01.086Z,37.49
2023-04-15T02:24:01.115Z,37.99
2023-04-15T02:25:01.186Z,38.94
2023-04-15T02:26:01.239Z,38.23
2023-04-15T02:27:01.281Z,39.50
2023-04-15T02:28:01.304Z,39.42
2023-04-15T02:29:01.572Z,38.70
2023-04-15T02:30:01.446Z,36.66
2023-04-15T02:31:01.462Z,35.48
2023-04-15T02:32:01.541Z,38.38
2023-04-15T02:33:01.567Z,38.01
2023-04-15T02:34:01.540Z,37.57
2023-04-15T02:35:01.594Z,37.82
2023-04-15T02:36:01.594Z,35.55
2023-04-15T02:37:01.696Z,36.61
2023-04-15T02:38:01.714Z,36.74
2023-04-15T02:39:01.947Z,36.32
2023-04-15T02:40:01.742Z,35.57
2023-04-15T02:41:01.828Z,36.36
2023-04-15T02:42:01.844Z,36.80
2023-04-15T02:43:01.948Z,35.98
2023-04-15T02:44:01.892Z,37.45
2023-04-15T02:45:01.931Z,35.89
2023-04-15T02:46:02.034Z,36.74
2023-04-15T02:47:02.009Z,35.84
2023-04-15T02:48:02.054Z,38.57
2023-04-15T02:49:02.278Z,37.80
2023-04-15T02:50:02.119Z,39.18
2023-04-15T02:51:02.147Z,39.35
2023-04-15T02:52:02.173Z,38.22
2023-04-15T02:53:02.172Z,37.24
2023-04-15T02:54:02.228Z,39.69
2023-04-15T02:55:02.269Z,37.48
2023-04-15T02:56:02.309Z,41.34
2023-04-15T02:57:02.320Z,39.12
2023-04-15T02:58:02.361Z,40.73
2023-04-15T02:59:02.584Z,41.35
2023-04-15T03:00:03.214Z,38.88
2023-04-15T03:01:02.509Z,38.14
2023-04-15T03:02:02.559Z,39.48
2023-04-15T03:03:02.635Z,39.82
2023-04-15T03:04:02.728Z,40.21
2023-04-15T03:05:02.628Z,41.12
2023-04-15T03:06:02.686Z,41.44
2023-04-15T03:07:02.719Z,42.14
2023-04-15T03:08:02.779Z,43.04
2023-04-15T03:09:02.913Z,41.40
2023-04-15T03:10:02.865Z,41.15
2023-04-15T03:11:02.941Z,43.82
2023-04-15T03:12:03.047Z,44.06
2023-04-15T03:13:03.009Z,41.22
2023-04-15T03:14:03.046Z,44.25
2023-04-15T03:15:03.081Z,44.80
2023-04-15T03:16:03.113Z,45.10
2023-04-15T03:17:03.141Z,44.45
2023-04-15T03:18:03.237Z,43.65
2023-04-15T03:19:03.514Z,43.64
2023-04-15T03:20:03.327Z,44.82
2023-04-15T03:21:03.293Z,44.16
2023-04-15T03:22:03.312Z,42.58
2023-04-15T03:23:03.344Z,46.17
2023-04-15T03:24:03.404Z,46.86
2023-04-15T03:25:03.456Z,44.73
2023-04-15T03:26:03.507Z,44.86
2023-04-15T03:27:03.570Z,41.90
2023-04-15T03:28:03.609Z,43.16
2023-04-15T03:29:03.777Z,43.98
2023-04-15T03:30:03.717Z,44.61
2023-04-15T03:31:03.780Z,44.18
2023-04-15T03:32:03.828Z,43.37
2023-04-15T03:33:03.853Z,42.75
2023-04-15T03:34:03.922Z,42.31
2023-04-15T03:35:03.974Z,43.28
2023-04-15T03:36:04.053Z,40.69
2023-04-15T03:37:04.104Z,43.32
2023-04-15T03:38:04.139Z,40.89
2023-04-15T03:39:04.265Z,37.86
2023-04-15T03:40:04.229Z,38.66
2023-04-15T03:41:04.263Z,39.79
2023-04-15T03:42:04.354Z,40.19
2023-04-15T03:43:04.307Z,40.49
2023-04-15T03:44:04.361Z,43.28
2023-04-15T03:45:04.357Z,43.92
2023-04-15T03:46:04.441Z,45.38
2023-04-15T03:47:04.384Z,41.54
2023-04-15T03:48:16.552Z,45.04
2023-04-15T03:49:05.402Z,45.14
2023-04-15T03:50:04.393Z,45.09
2023-04-15T03:51:04.383Z,44.36
2023-04-15T03:52:04.378Z,45.06
2023-04-15T03:53:04.396Z,45.65
2023-04-15T03:54:04.395Z,44.53
2023-04-15T03:55:04.354Z,46.26
2023-04-15T03:56:04.371Z,45.18
2023-04-15T03:57:04.350Z,45.78
2023-04-15T03:58:04.344Z,45.04
2023-04-15T03:59:04.377Z,45.46
2023-04-15T04:00:04.398Z,45.09
2023-04-15T04:01:04.460Z,42.47
2023-04-15T04:02:04.519Z,45.21
2023-04-15T04:03:04.756Z,43.95
2023-04-15T04:04:04.710Z,46.49
2023-04-15T04:05:04.596Z,45.68
2023-04-15T04:06:04.609Z,45.56
2023-04-15T04:07:04.654Z,44.88
2023-04-15T04:08:04.665Z,44.58
2023-04-15T04:09:04.688Z,45.54
2023-04-15T04:10:04.739Z,45.27
2023-04-15T04:11:04.758Z,43.46
2023-04-15T04:12:04.782Z,44.95
2023-04-15T04:13:04.789Z,45.64
2023-04-15T04:14:04.797Z,44.57
2023-04-15T04:15:04.802Z,43.75
2023-04-15T04:16:04.971Z,45.53
2023-04-15T04:17:04.974Z,45.37
2023-04-15T04:18:04.964Z,45.41
2023-04-15T04:19:04.949Z,45.55
2023-04-15T04:20:04.981Z,44.01
2023-04-15T04:21:04.981Z,46.10
2023-04-15T04:22:04.957Z,46.26
2023-04-15T04:23:04.939Z,44.32
2023-04-15T04:24:04.968Z,42.49
2023-04-15T04:25:05.000Z,44.50
2023-04-15T04:26:04.987Z,42.22
2023-04-15T04:27:05.004Z,41.96
2023-04-15T04:28:05.012Z,41.50
2023-04-15T04:29:05.051Z,43.05
2023-04-15T04:30:05.105Z,39.76
2023-04-15T04:31:05.085Z,40.73
2023-04-15T04:32:05.182Z,42.29
2023-04-15T04:33:05.199Z,39.66
2023-04-15T04:34:05.174Z,36.44
2023-04-15T04:35:05.166Z,38.18
2023-04-15T04:36:05.175Z,36.14
2023-04-15T04:37:05.218Z,32.70
2023-04-15T04:38:05.229Z,35.97
2023-04-15T04:39:05.282Z,35.18
2023-04-15T04:40:05.276Z,31.27
2023-04-15T04:41:05.321Z,31.37
2023-04-15T04:42:05.336Z,30.71
2023-04-15T04:43:05.367Z,27.03
2023-04-15T04:44:05.395Z,27.92
2023-04-15T04:45:05.412Z,28.46
2023-04-15T04:46:05.502Z,25.37
2023-04-15T04:47:05.456Z,25.01
2023-04-15T04:48:05.510Z,26.78
2023-04-15T04:49:05.449Z,26.26
2023-04-15T04:50:05.500Z,27.87
2023-04-15T04:51:05.538Z,29.51
2023-04-15T04:52:05.546Z,27.03
2023-04-15T04:53:05.521Z,26.34
2023-04-15T04:54:05.566Z,25.81
2023-04-15T04:55:05.572Z,27.06
2023-04-15T04:56:05.664Z,26.47
2023-04-15T04:57:05.610Z,26.39
2023-04-15T04:58:05.642Z,26.94
2023-04-15T04:59:05.652Z,28.12
2023-04-15T05:00:05.705Z,28.70
2023-04-15T05:01:05.757Z,26.72
2023-04-15T05:02:05.774Z,28.50
2023-04-15T05:03:05.904Z,27.33
2023-04-15T05:04:05.981Z,27.35
2023-04-15T05:05:05.791Z,28.63
2023-04-15T05:06:05.851Z,27.44
2023-04-15T05:07:05.865Z,28.24
2023-04-15T05:08:05.923Z,29.09
2023-04-15T05:09:05.912Z,30.49
2023-04-15T05:10:05.949Z,29.41
2023-04-15T05:11:05.970Z,26.34
2023-04-15T05:12:05.979Z,30.85
2023-04-15T05:13:05.986Z,29.43
2023-04-15T05:14:06.044Z,30.89
2023-04-15T05:15:06.061Z,30.03
2023-04-15T05:16:06.145Z,30.55
2023-04-15T05:17:06.150Z,31.46
2023-04-15T05:18:06.233Z,29.54
2023-04-15T05:19:06.150Z,28.66
2023-04-15T05:20:06.171Z,29.25
2023-04-15T05:21:06.165Z,30.37
2023-04-15T05:22:06.174Z,28.46
2023-04-15T05:23:06.194Z,27.19
2023-04-15T05:24:06.188Z,28.57
2023-04-15T05:25:06.220Z,26.59
2023-04-15T05:26:06.265Z,28.06
2023-04-15T05:27:06.284Z,26.28
2023-04-15T05:28:06.317Z,27.69
2023-04-15T05:29:06.282Z,28.98
2023-04-15T05:30:06.325Z,28.43
2023-04-15T05:31:06.356Z,28.29
2023-04-15T05:32:06.355Z,28.58
2023-04-15T05:33:06.343Z,27.62
2023-04-15T05:34:06.391Z,27.14
2023-04-15T05:35:06.390Z,27.92
2023-04-15T05:36:06.430Z,29.20
2023-04-15T05:37:06.416Z,29.20
2023-04-15T05:38:06.490Z,26.28
2023-04-15T05:39:06.453Z,29.27
2023-04-15T05:40:06.490Z,28.89
2023-04-15T05:41:06.521Z,27.09
2023-04-15T05:42:06.564Z,28.08
2023-04-15T05:43:06.513Z,28.94
2023-04-15T05:44:06.529Z,29.56
2023-04-15T05:45:06.542Z,26.74
2023-04-15T05:46:06.579Z,25.96
2023-04-15T05:47:06.634Z,27.41
2023-04-15T05:48:06.647Z,25.89
2023-04-15T05:49:06.655Z,25.24
2023-04-15T05:50:06.745Z,26.98
2023-04-15T05:51:06.699Z,25.91
2023-04-15T05:52:06.738Z,27.23
2023-04-15T05:53:06.729Z,26.98
2023-04-15T05:54:06.771Z,29.05
2023-04-15T05:55:06.803Z,29.73
2023-04-15T05:56:06.796Z,29.05
2023-04-15T05:57:06.813Z,26.65
2023-04-15T05:58:06.901Z,25.97
2023-04-15T05:59:06.904Z,26.31
2023-04-15T06:00:06.914Z,27.52
2023-04-15T06:01:06.941Z,27.92
2023-04-15T06:02:06.998Z,28.33
2023-04-15T06:03:07.045Z,25.60
2023-04-15T06:04:07.102Z,28.85
2023-04-15T06:05:07.032Z,26.32
2023-04-15T06:06:07.035Z,24.19
2023-04-15T06:07:07.065Z,25.00
2023-04-15T06:08:07.068Z,28.00
2023-04-15T06:09:07.070Z,25.85
2023-04-15T06:10:07.095Z,25.81
2023-04-15T06:11:07.163Z,27.86
2023-04-15T06:12:07.182Z,26.59
2023-04-15T06:13:07.186Z,26.19
2023-04-15T06:14:07.245Z,28.40
2023-04-15T06:15:07.219Z,25.00
2023-04-15T06:16:07.290Z,27.77
2023-04-15T06:17:07.300Z,25.00
2023-04-15T06:18:07.292Z,26.51
2023-04-15T06:19:07.292Z,26.73
2023-04-15T06:20:07.341Z,26.98
2023-04-15T06:21:07.392Z,28.41
2023-04-15T06:22:07.389Z,26.88
2023-04-15T06:23:07.426Z,27.26
2023-04-15T06:24:07.433Z,28.15
2023-04-15T06:25:07.450Z,26.59
2023-04-15T06:26:07.482Z,27.27
2023-04-15T06:27:07.485Z,28.61
2023-04-15T06:28:07.507Z,30.54
2023-04-15T06:29:07.539Z,28.77
2023-04-15T06:30:07.563Z,27.11
2023-04-15T06:31:07.684Z,28.76
2023-04-15T06:32:07.669Z,26.67
2023-04-15T06:33:07.685Z,26.19
2023-04-15T06:34:08.315Z,29.24
2023-04-15T06:35:07.720Z,28.36
2023-04-15T06:36:07.752Z,27.96
2023-04-15T06:37:07.781Z,27.37
2023-04-15T06:38:07.805Z,26.59
2023-04-15T06:39:07.848Z,28.46
2023-04-15T06:40:07.856Z,25.00
2023-04-15T06:41:07.875Z,28.39
2023-04-15T06:42:07.904Z,25.58
2023-04-15T06:43:07.929Z,25.03
2023-04-15T06:44:07.966Z,26.50
2023-04-15T06:45:08.011Z,29.75
2023-04-15T06:46:08.006Z,30.57
2023-04-15T06:47:08.009Z,31.30
2023-04-15T06:48:08.004Z,33.03
2023-04-15T06:49:08.047Z,30.85
2023-04-15T06:50:08.077Z,33.11
2023-04-15T06:51:08.136Z,27.23
2023-04-15T06:52:08.190Z,28.14
2023-04-15T06:53:08.241Z,30.46
2023-04-15T06:54:08.269Z,32.62
2023-04-15T06:55:08.327Z,32.17
2023-04-15T06:56:08.344Z,25.49
2023-04-15T06:57:08.394Z,25.18
2023-04-15T06:58:08.455Z,26.37
2023-04-15T06:59:08.496Z,27.41
2023-04-15T07:00:08.573Z,30.65
2023-04-15T07:01:08.632Z,32.59
2023-04-15T07:02:08.728Z,31.31
2023-04-15T07:03:08.750Z,31.96
2023-04-15T07:04:08.743Z,35.19
2023-04-15T07:05:08.766Z,36.26
2023-04-15T07:06:08.787Z,34.39
2023-04-15T07:07:08.844Z,34.52
2023-04-15T07:08:08.876Z,32.98
2023-04-15T07:09:08.947Z,32.81
2023-04-15T07:10:08.969Z,30.29
2023-04-15T07:11:09.020Z,31.83
2023-04-15T07:12:09.009Z,33.43
2023-04-15T07:13:09.058Z,31.66
2023-04-15T07:14:09.090Z,33.60
2023-04-15T07:15:09.136Z,33.71
2023-04-15T07:16:09.171Z,31.03
2023-04-15T07:17:09.507Z,34.24
2023-04-15T07:18:09.619Z,34.80
2023-04-15T07:19:09.486Z,34.22
2023-04-15T07:20:09.327Z,32.91
2023-04-15T07:21:09.398Z,32.46
2023-04-15T07:22:09.472Z,33.62
2023-04-15T07:23:09.519Z,30.61
2023-04-15T07:24:09.550Z,31.97
2023-04-15T07:25:09.646Z,31.62
2023-04-15T07:26:09.684Z,31.37
2023-04-15T07:27:09.756Z,30.12
2023-04-15T07:28:09.757Z,30.25
2023-04-15T07:29:09.825Z,29.48
2023-04-15T07:30:09.925Z,26.72
2023-04-15T07:31:09.964Z,26.32
2023-04-15T07:32:09.990Z,29.32
2023-04-15T07:33:10.048Z,29.54
2023-04-15T07:34:10.056Z,29.33
2023-04-15T07:35:10.122Z,27.67
2023-04-15T07:36:10.214Z,28.31
2023-04-15T07:37:10.231Z,32.71
2023-04-15T07:38:10.302Z,29.84
2023-04-15T07:39:10.358Z,29.74
2023-04-15T07:40:10.397Z,27.32
2023-04-15T07:41:10.485Z,28.11
2023-04-15T07:42:10.557Z,29.47
2023-04-15T07:43:10.618Z,27.06
2023-04-15T07:44:10.663Z,28.30
2023-04-15T07:45:10.702Z,32.98
2023-04-15T07:46:10.808Z,31.73
2023-04-15T07:47:10.825Z,30.65
2023-04-15T07:48:10.856Z,32.77
2023-04-15T07:49:10.946Z,27.75
2023-04-15T07:50:10.984Z,31.61
2023-04-15T07:51:11.062Z,31.26
2023-04-15T07:52:11.075Z,27.96
2023-04-15T07:53:11.155Z,30.25
2023-04-15T07:54:11.239Z,29.46
2023-04-15T07:55:11.314Z,27.89
2023-04-15T07:56:11.356Z,28.21
2023-04-15T07:57:11.431Z,26.92
2023-04-15T07:58:11.466Z,29.11
2023-04-15T07:59:11.557Z,25.00
2023-04-15T08:00:11.619Z,28.78
2023-04-15T08:01:11.665Z,32.66
2023-04-15T08:02:11.865Z,31.39
2023-04-15T08:03:11.916Z,31.39
2023-04-15T08:04:12.007Z,34.26
2023-04-15T08:05:11.989Z,35.09
2023-04-15T08:06:11.997Z,35.16
2023-04-15T08:07:12.032Z,36.34
2023-04-15T08:08:12.247Z,27.88
2023-04-15T08:09:12.190Z,36.78
2023-04-15T08:10:12.240Z,37.35
2023-04-15T08:11:12.326Z,33.28
2023-04-15T08:12:12.378Z,25.23
2023-04-15T08:13:12.458Z,33.28
2023-04-15T08:14:12.481Z,34.62
2023-04-15T08:15:12.563Z,38.69
2023-04-15T08:16:12.717Z,33.98
2023-04-15T08:17:12.718Z,25.00
2023-04-15T08:18:12.766Z,25.00
2023-04-15T08:19:12.804Z,29.41
2023-04-15T08:20:12.893Z,28.05
2023-04-15T08:21:12.951Z,30.84
2023-04-15T08:22:18.502Z,34.07
2023-04-15T08:23:13.995Z,33.43
2023-04-15T08:24:12.965Z,34.22
2023-04-15T08:25:12.993Z,32.86
2023-04-15T08:26:13.005Z,34.38
2023-04-15T08:27:12.945Z,34.97
2023-04-15T08:28:12.968Z,39.87
2023-04-15T08:29:12.993Z,35.21
2023-04-15T08:30:12.940Z,29.73
2023-04-15T08:31:12.942Z,33.21
2023-04-15T08:32:13.039Z,34.91
2023-04-15T08:33:13.039Z,34.19
2023-04-15T08:34:13.126Z,39.54
2023-04-15T08:35:13.168Z,38.92
2023-04-15T08:36:13.241Z,38.10
2023-04-15T08:37:13.282Z,37.95
2023-04-15T08:38:13.347Z,40.07
2023-04-15T08:39:13.438Z,41.72
2023-04-15T08:40:13.478Z,43.59
2023-04-15T08:41:13.519Z,40.88
2023-04-15T08:42:13.619Z,38.09
2023-04-15T08:43:13.663Z,42.71
2023-04-15T08:44:13.722Z,44.03
2023-04-15T08:45:13.806Z,43.00
2023-04-15T08:46:13.865Z,41.24
2023-04-15T08:47:13.945Z,40.81
2023-04-15T08:48:13.955Z,41.10
2023-04-15T08:49:14.058Z,39.44
2023-04-15T08:50:14.088Z,38.86
2023-04-15T08:51:14.181Z,31.56
2023-04-15T08:52:14.253Z,24.74
2023-04-15T08:53:14.286Z,28.64
2023-04-15T08:54:14.334Z,32.15
2023-04-15T08:55:14.408Z,36.33
2023-04-15T08:56:14.447Z,27.44
2023-04-15T08:57:14.535Z,25.00
2023-04-15T08:58:14.624Z,25.76
2023-04-15T08:59:14.637Z,25.45
2023-04-15T09:00:14.698Z,28.57
2023-04-15T09:01:14.816Z,33.21
2023-04-15T09:02:14.868Z,29.98
2023-04-15T09:03:14.955Z,35.45
2023-04-15T09:04:15.012Z,36.83
2023-04-15T09:05:15.018Z,40.63
2023-04-15T09:06:15.102Z,43.71
2023-04-15T09:07:15.141Z,43.54
2023-04-15T09:08:15.214Z,44.95
2023-04-15T09:09:15.236Z,47.42
2023-04-15T09:10:15.328Z,45.83
2023-04-15T09:11:17.108Z,44.76
2023-04-15T09:12:15.388Z,45.27
2023-04-15T09:13:15.383Z,42.92
2023-04-15T09:14:15.349Z,44.10
2023-04-15T09:15:15.348Z,48.90
2023-04-15T09:16:15.423Z,51.79
2023-04-15T09:17:15.337Z,47.72
2023-04-15T09:18:15.348Z,44.50
2023-04-15T09:19:15.351Z,50.65
2023-04-15T09:20:15.336Z,43.52
2023-04-15T09:21:15.337Z,45.67
2023-04-15T09:22:15.325Z,49.38
2023-04-15T09:23:15.356Z,45.63
2023-04-15T09:24:15.333Z,39.72
2023-04-15T09:25:15.289Z,41.04
2023-04-15T09:26:15.274Z,50.20
2023-04-15T09:27:15.313Z,53.38
2023-04-15T09:28:15.320Z,48.26
2023-04-15T09:29:15.261Z,41.44
2023-04-15T09:30:15.273Z,44.78
2023-04-15T09:31:15.888Z,42.38
2023-04-15T09:32:15.246Z,43.64
2023-04-15T09:33:15.234Z,51.24
2023-04-15T09:34:15.252Z,46.97
2023-04-15T09:35:15.224Z,50.74
2023-04-15T09:36:15.224Z,50.76
2023-04-15T09:37:31.166Z,49.13
2023-04-15T09:38:16.186Z,49.18
2023-04-15T09:39:15.181Z,46.51
2023-04-15T09:40:15.209Z,50.20
2023-04-15T09:41:15.187Z,52.16
2023-04-15T09:42:15.165Z,56.14
2023-04-15T09:43:15.179Z,51.78
2023-04-15T09:44:15.491Z,47.75
2023-04-15T09:45:15.524Z,55.24
2023-04-15T09:46:15.190Z,51.53
2023-04-15T09:47:15.144Z,50.85
2023-04-15T09:48:15.131Z,55.31
2023-04-15T09:49:15.164Z,52.16
2023-04-15T09:50:15.160Z,39.74
2023-04-15T09:51:15.118Z,37.83
2023-04-15T09:52:15.105Z,37.67
2023-04-15T09:53:15.165Z,42.91
2023-04-15T09:54:15.209Z,43.87
2023-04-15T09:55:15.206Z,45.30
2023-04-15T09:56:15.260Z,51.88
2023-04-15T09:57:15.298Z,48.66
2023-04-15T09:58:15.337Z,43.14
2023-04-15T09:59:15.363Z,43.72
2023-04-15T10:00:15.451Z,44.03
2023-04-15T10:01:15.528Z,46.13
2023-04-15T10:02:15.548Z,44.88
2023-04-15T10:03:15.750Z,42.24
2023-04-15T10:04:15.664Z,47.71
2023-04-15T10:05:15.626Z,48.15
2023-04-15T10:06:15.673Z,46.79
2023-04-15T10:07:15.731Z,42.88
2023-04-15T10:08:15.787Z,45.13
2023-04-15T10:09:15.839Z,49.42
2023-04-15T10:10:15.910Z,51.20
2023-04-15T10:11:15.886Z,51.83
2023-04-15T10:12:15.957Z,50.42
2023-04-15T10:13:15.978Z,48.03
2023-04-15T10:14:16.044Z,48.02
2023-04-15T10:15:16.088Z,52.91
2023-04-15T10:16:16.257Z,49.99
2023-04-15T10:17:16.215Z,40.70
2023-04-15T10:18:16.217Z,41.90
2023-04-15T10:19:16.257Z,40.51
2023-04-15T10:20:16.314Z,40.46
2023-04-15T10:21:16.319Z,37.81
2023-04-15T10:22:16.404Z,32.31
2023-04-15T10:23:16.433Z,32.41
2023-04-15T10:24:16.478Z,28.43
2023-04-15T10:25:16.556Z,27.07
2023-04-15T10:26:16.579Z,32.24
2023-04-15T10:27:16.644Z,31.99
2023-04-15T10:28:16.682Z,37.01
2023-04-15T10:29:16.724Z,37.85
2023-04-15T10:30:16.778Z,40.55
2023-04-15T10:31:16.839Z,42.71
2023-04-15T10:32:16.849Z,39.83
2023-04-15T10:33:16.924Z,32.10
2023-04-15T10:34:17.001Z,30.11
2023-04-15T10:35:17.003Z,31.33
2023-04-15T10:36:17.048Z,30.89
2023-04-15T10:37:17.090Z,32.85
2023-04-15T10:38:17.128Z,27.54
2023-04-15T10:39:17.178Z,25.00
2023-04-15T10:40:17.216Z,27.91
2023-04-15T10:41:19.912Z,30.50
2023-04-15T10:42:17.253Z,40.44
2023-04-15T10:43:17.242Z,41.51
2023-04-15T10:44:17.265Z,44.48
2023-04-15T10:45:17.271Z,41.86
2023-04-15T10:46:17.283Z,40.15
2023-04-15T10:47:17.215Z,45.12
2023-04-15T10:48:17.232Z,44.01
2023-04-15T10:49:17.345Z,45.81
2023-04-15T10:50:17.213Z,42.78
2023-04-15T10:51:17.215Z,38.23
2023-04-15T10:52:17.217Z,29.94
2023-04-15T10:53:17.197Z,26.52
2023-04-15T10:54:17.189Z,28.67
2023-04-15T10:55:17.172Z,31.91
2023-04-15T10:56:17.167Z,26.03
2023-04-15T10:57:17.171Z,28.56
2023-04-15T10:58:17.159Z,27.73
2023-04-15T10:59:17.145Z,25.93
2023-04-15T11:00:17.136Z,26.71
2023-04-15T11:01:17.132Z,31.64
2023-04-15T11:02:17.233Z,30.79
2023-04-15T11:03:17.147Z,36.23
2023-04-15T11:04:17.160Z,34.13
2023-04-15T11:05:17.105Z,38.10
2023-04-15T11:06:17.103Z,41.31
2023-04-15T11:07:17.101Z,37.87
2023-04-15T11:08:17.069Z,30.24
2023-04-15T11:09:17.069Z,37.42
2023-04-15T11:10:17.066Z,37.91
2023-04-15T11:11:17.059Z,44.21
2023-04-15T11:12:17.037Z,47.07
2023-04-15T11:13:17.037Z,36.57
2023-04-15T11:14:17.021Z,36.92
2023-04-15T11:15:17.055Z,29.38
2023-04-15T11:16:17.043Z,30.48
2023-04-15T11:17:17.032Z,30.76
2023-04-15T11:18:17.037Z,27.72
2023-04-15T11:19:17.019Z,28.62
2023-04-15T11:20:17.007Z,34.78
2023-04-15T11:21:16.982Z,25.37
2023-04-15T11:22:16.968Z,32.63
2023-04-15T11:23:17.021Z,33.18
2023-04-15T11:24:16.972Z,30.81
2023-04-15T11:25:16.939Z,34.19
2023-04-15T11:26:16.965Z,27.07
2023-04-15T11:27:17.044Z,30.05
2023-04-15T11:28:17.064Z,37.63
2023-04-15T11:29:17.086Z,29.42
2023-04-15T11:30:17.160Z,25.00
2023-04-15T11:31:17.223Z,29.05
2023-04-15T11:32:17.237Z,34.38
2023-04-15T11:33:17.228Z,35.09
2023-04-15T11:34:17.247Z,37.92
2023-04-15T11:35:17.299Z,36.48
2023-04-15T11:36:17.336Z,39.20
2023-04-15T11:37:17.364Z,28.32
2023-04-15T11:38:17.399Z,33.21
2023-04-15T11:39:17.423Z,27.49
2023-04-15T11:40:17.479Z,31.81
2023-04-15T11:41:17.491Z,37.49
2023-04-15T11:42:17.515Z,43.89
2023-04-15T11:43:17.558Z,33.71
2023-04-15T11:44:17.605Z,28.39
2023-04-15T11:45:17.647Z,25.34
2023-04-15T11:46:17.750Z,25.76
2023-04-15T11:47:17.792Z,25.10
2023-04-15T11:48:17.734Z,25.00
2023-04-15T11:49:17.770Z,28.76
2023-04-15T11:50:17.840Z,40.70
2023-04-15T11:51:17.848Z,48.58
2023-04-15T11:52:17.937Z,48.63
2023-04-15T11:53:17.961Z,47.92
2023-04-15T11:54:18.000Z,45.27
2023-04-15T11:55:18.044Z,41.88
2023-04-15T11:56:18.067Z,39.53
2023-04-15T11:57:18.131Z,45.16
2023-04-15T11:58:18.165Z,48.88
2023-04-15T11:59:18.223Z,50.28
2023-04-15T12:00:18.245Z,43.67
2023-04-15T12:01:18.289Z,36.24
2023-04-15T12:02:18.482Z,33.38
2023-04-15T12:03:18.562Z,37.71
2023-04-15T12:04:19.953Z,44.18
2023-04-15T12:05:18.534Z,53.60
2023-04-15T12:06:18.407Z,51.56
2023-04-15T12:07:18.388Z,52.93
2023-04-15T12:08:18.414Z,48.71
2023-04-15T12:09:18.391Z,42.33
2023-04-15T12:10:18.372Z,45.35
2023-04-15T12:11:18.367Z,45.25
2023-04-15T12:12:18.372Z,38.92
2023-04-15T12:13:18.349Z,43.46
2023-04-15T12:14:18.339Z,41.25
2023-04-15T12:15:18.356Z,42.48
2023-04-15T12:16:18.444Z,37.84
2023-04-15T12:17:18.401Z,27.94
2023-04-15T12:18:18.475Z,25.77
2023-04-15T12:19:18.334Z,26.77
2023-04-15T12:20:18.295Z,30.44
2023-04-15T12:21:18.307Z,35.53
2023-04-15T12:22:18.299Z,39.43
2023-04-15T12:23:18.256Z,34.69
2023-04-15T12:24:18.275Z,26.02
2023-04-15T12:25:18.274Z,25.08
2023-04-15T12:26:18.284Z,27.20
2023-04-15T12:27:18.267Z,30.30
2023-04-15T12:28:18.266Z,37.25
2023-04-15T12:29:18.236Z,37.66
2023-04-15T12:30:18.237Z,25.91
2023-04-15T12:31:18.281Z,19.89
2023-04-15T12:32:18.237Z,24.62
2023-04-15T12:33:18.208Z,25.00
2023-04-15T12:34:18.202Z,26.92
2023-04-15T12:35:18.213Z,31.36
2023-04-15T12:36:18.182Z,29.13
2023-04-15T12:37:18.193Z,30.00
2023-04-15T12:38:18.179Z,30.77
2023-04-15T12:39:18.175Z,39.12
2023-04-15T12:40:18.145Z,27.20
2023-04-15T12:41:18.145Z,24.95
2023-04-15T12:42:18.202Z,26.23
2023-04-15T12:43:18.165Z,32.07
2023-04-15T12:44:18.140Z,40.21
2023-04-15T12:45:18.139Z,49.84
2023-04-15T12:46:18.193Z,50.87
2023-04-15T12:47:18.192Z,50.12
2023-04-15T12:48:18.108Z,52.54
2023-04-15T12:49:18.076Z,39.64
2023-04-15T12:50:18.117Z,42.15
2023-04-15T12:51:18.110Z,45.87
2023-04-15T12:52:18.176Z,50.48
2023-04-15T12:53:18.230Z,46.54